Terminal Aerodrome Forecast
Issued by NWS

Home | Current Version | Previous Version | Text Only | Print | Product List | Glossary Off
Versions: 1 2 3 4 5 6 7 8 9 10 11 12 13 14 15 16 17 18 19 20

000
FTUS41 KCLE 181100
TAFFDY
TAF
KFDY 181134Z 1812/1912 27010KT P6SM OVC025
     FM182100 27008KT P6SM OVC035
     FM190300 28005KT P6SM OVC025=

USA.gov is the U.S. government's official web portal to all federal, state and local government web resources and services.